createdAt,value
2023-05-11T00:04:48.089Z,13.65
2023-05-11T00:10:10.926Z,13.60
2023-05-11T00:15:32.333Z,13.53
2023-05-11T00:20:54.650Z,13.49
2023-05-11T00:26:17.040Z,13.47
2023-05-11T00:31:39.097Z,13.45
2023-05-11T00:37:00.186Z,13.45
2023-05-11T00:42:21.622Z,13.44
2023-05-11T00:47:42.624Z,13.39
2023-05-11T00:53:03.758Z,13.33
2023-05-11T00:58:25.801Z,13.27
2023-05-11T01:03:47.756Z,13.20
2023-05-11T01:09:36.534Z,13.14
2023-05-11T01:15:00.561Z,13.07
2023-05-11T01:20:27.329Z,13.03
2023-05-11T01:26:14.075Z,12.93
2023-05-11T01:31:40.082Z,12.87
2023-05-11T01:37:10.054Z,12.79
2023-05-11T01:42:36.728Z,12.71
2023-05-11T01:48:00.388Z,12.67
2023-05-11T01:53:22.827Z,12.61
2023-05-11T01:58:45.521Z,12.56
2023-05-11T02:04:09.401Z,12.52
2023-05-11T02:09:32.756Z,12.47
2023-05-11T02:14:57.188Z,12.44
2023-05-11T02:20:19.949Z,12.36
2023-05-11T02:25:43.881Z,12.34
2023-05-11T02:31:10.741Z,12.31
2023-05-11T02:36:34.241Z,12.27
2023-05-11T02:41:58.750Z,12.23
2023-05-11T02:47:22.737Z,12.19
2023-05-11T02:52:47.530Z,12.15
2023-05-11T02:58:09.031Z,12.16
2023-05-11T03:03:33.528Z,12.17
2023-05-11T03:08:55.163Z,12.14
2023-05-11T03:14:18.539Z,12.11
2023-05-11T03:19:42.029Z,12.09
2023-05-11T03:25:07.732Z,12.07
2023-05-11T03:30:30.061Z,12.02
2023-05-11T03:35:54.243Z,11.99
2023-05-11T03:41:19.243Z,11.94
2023-05-11T03:46:46.146Z,11.95
2023-05-11T03:52:10.574Z,11.94
2023-05-11T03:57:31.730Z,11.90
2023-05-11T04:02:53.292Z,11.86
2023-05-11T04:08:15.434Z,11.83
2023-05-11T04:13:37.104Z,11.85
2023-05-11T04:18:58.983Z,11.80
2023-05-11T04:24:19.981Z,11.77
2023-05-11T04:29:41.237Z,11.77
2023-05-11T04:35:01.867Z,11.79
2023-05-11T04:40:27.239Z,11.73
2023-05-11T04:45:50.499Z,11.70
2023-05-11T04:51:19.510Z,11.74
2023-05-11T04:56:41.257Z,11.84
2023-05-11T05:02:04.437Z,11.90
2023-05-11T05:07:25.472Z,11.92
2023-05-11T05:12:46.973Z,11.90
2023-05-11T05:18:09.053Z,11.97
2023-05-11T05:23:31.007Z,12.06
2023-05-11T05:28:52.017Z,12.11
2023-05-11T05:34:16.477Z,12.23
2023-05-11T05:39:38.731Z,12.27
2023-05-11T05:45:00.982Z,12.36
2023-05-11T05:50:22.514Z,12.44
2023-05-11T05:55:43.599Z,12.49
2023-05-11T06:01:08.738Z,12.54
2023-05-11T06:06:30.220Z,12.58
2023-05-11T06:11:51.271Z,12.62
2023-05-11T06:17:13.353Z,12.72
2023-05-11T06:22:35.616Z,12.88
2023-05-11T06:27:57.832Z,13.01
2023-05-11T06:33:19.878Z,13.21
2023-05-11T06:38:41.334Z,13.51
2023-05-11T06:44:03.070Z,13.73
2023-05-11T06:49:30.557Z,14.18
2023-05-11T06:54:51.767Z,14.87
2023-05-11T07:00:12.998Z,15.57
2023-05-11T07:05:34.118Z,16.03
2023-05-11T07:10:55.193Z,16.08
2023-05-11T07:16:16.077Z,16.32
2023-05-11T07:21:37.052Z,16.17
2023-05-11T07:26:57.735Z,16.34
2023-05-11T07:32:18.550Z,16.36
2023-05-11T07:37:39.499Z,16.55
2023-05-11T07:43:00.372Z,16.88
2023-05-11T07:48:21.683Z,16.92
2023-05-11T07:53:45.105Z,17.04
2023-05-11T07:59:06.591Z,16.90
2023-05-11T08:04:28.351Z,16.82
2023-05-11T08:09:49.369Z,16.80
2023-05-11T08:15:10.677Z,16.83
2023-05-11T08:20:31.609Z,16.59
2023-05-11T08:25:53.889Z,16.30
2023-05-11T08:31:14.688Z,16.28
2023-05-11T08:36:36.337Z,16.34
2023-05-11T08:41:58.205Z,16.47
2023-05-11T08:47:22.522Z,16.72
2023-05-11T08:52:44.014Z,16.82
2023-05-11T08:58:07.294Z,16.88
2023-05-11T09:03:30.240Z,17.03
2023-05-11T09:08:51.516Z,17.17
2023-05-11T09:14:13.170Z,16.99
2023-05-11T09:19:34.545Z,16.83
2023-05-11T09:24:55.645Z,16.82
2023-05-11T09:30:23.169Z,17.29
2023-05-11T09:35:44.421Z,17.56
2023-05-11T09:41:08.487Z,17.24
2023-05-11T09:46:29.372Z,16.99
2023-05-11T09:52:01.525Z,16.81
2023-05-11T09:57:24.308Z,16.76
2023-05-11T10:02:45.494Z,16.72
2023-05-11T10:08:07.418Z,16.83
2023-05-11T10:13:30.822Z,17.14
2023-05-11T10:18:52.559Z,17.54
2023-05-11T10:24:14.127Z,17.76
2023-05-11T10:29:37.437Z,17.82
2023-05-11T10:34:59.373Z,17.93
2023-05-11T10:40:21.051Z,17.99
2023-05-11T10:46:20.200Z,17.81
2023-05-11T10:52:19.999Z,17.87
2023-05-11T10:57:58.107Z,18.04
2023-05-11T11:03:19.128Z,18.10
2023-05-11T11:09:02.741Z,18.30
2023-05-11T11:14:26.423Z,18.19
2023-05-11T11:19:47.466Z,18.04
2023-05-11T11:25:09.986Z,17.95
2023-05-11T11:30:30.954Z,17.94
2023-05-11T11:35:52.381Z,17.96
2023-05-11T11:41:29.037Z,18.00
2023-05-11T11:47:10.945Z,18.07
2023-05-11T11:52:31.892Z,18.13
2023-05-11T11:57:52.676Z,18.12
2023-05-11T12:03:23.121Z,18.26
2023-05-11T12:08:44.512Z,18.22
2023-05-11T12:14:09.036Z,18.00
2023-05-11T12:19:31.013Z,17.74
2023-05-11T12:24:57.739Z,17.54
2023-05-11T12:30:22.344Z,17.49
2023-05-11T12:35:44.064Z,17.51
2023-05-11T12:41:06.114Z,17.81
2023-05-11T12:46:27.312Z,18.08
2023-05-11T12:52:01.312Z,18.20
2023-05-11T12:57:27.237Z,18.19
2023-05-11T13:02:56.723Z,18.08
2023-05-11T13:08:22.402Z,18.25
2023-05-11T13:13:43.900Z,18.62
2023-05-11T13:19:06.605Z,18.79
2023-05-11T13:24:27.869Z,18.54
2023-05-11T13:29:49.115Z,18.25
2023-05-11T13:35:10.458Z,17.91
2023-05-11T13:40:31.668Z,17.74
2023-05-11T13:45:52.898Z,17.69
2023-05-11T13:51:14.758Z,17.81
2023-05-11T13:56:37.490Z,17.77
2023-05-11T14:01:59.031Z,17.79
2023-05-11T14:07:20.202Z,17.67
2023-05-11T14:12:41.725Z,17.62
2023-05-11T14:18:05.409Z,17.47
2023-05-11T14:23:26.507Z,17.50
2023-05-11T14:28:47.697Z,17.56
2023-05-11T14:34:08.847Z,17.49
2023-05-11T14:39:29.890Z,17.46
2023-05-11T14:44:52.429Z,17.47
2023-05-11T14:50:13.344Z,17.44
2023-05-11T14:55:39.531Z,17.37
2023-05-11T15:01:00.911Z,17.36
2023-05-11T15:06:22.683Z,17.28
2023-05-11T15:11:43.651Z,17.28
2023-05-11T15:17:04.720Z,17.26
2023-05-11T15:22:25.765Z,17.22
2023-05-11T15:27:46.910Z,17.20
2023-05-11T15:33:09.193Z,17.21
2023-05-11T15:38:31.062Z,17.25
2023-05-11T15:43:52.987Z,17.28
2023-05-11T15:49:13.829Z,17.36
2023-05-11T15:54:36.109Z,17.26
2023-05-11T15:59:57.190Z,17.17
2023-05-11T16:05:18.217Z,17.08
2023-05-11T16:10:42.792Z,16.96
2023-05-11T16:16:04.476Z,16.94
2023-05-11T16:21:25.382Z,16.89
2023-05-11T16:26:46.281Z,16.80
2023-05-11T16:32:07.517Z,16.82
2023-05-11T16:37:28.832Z,16.87
2023-05-11T16:42:50.242Z,16.89
2023-05-11T16:48:15.822Z,16.89
2023-05-11T16:53:39.468Z,16.89
2023-05-11T16:59:00.548Z,16.85
2023-05-11T17:04:21.688Z,16.81
2023-05-11T17:09:42.644Z,16.77
2023-05-11T17:15:04.826Z,16.70
2023-05-11T17:20:25.871Z,16.57
2023-05-11T17:25:46.966Z,16.53
2023-05-11T17:31:13.583Z,16.54
2023-05-11T17:36:35.704Z,16.50
2023-05-11T17:41:56.900Z,16.47
2023-05-11T17:47:17.983Z,16.56
2023-05-11T17:52:38.708Z,16.61
2023-05-11T17:57:59.932Z,16.73
2023-05-11T18:03:21.172Z,16.75
2023-05-11T18:08:42.850Z,16.67
2023-05-11T18:14:04.080Z,16.59
2023-05-11T18:19:26.354Z,16.51
2023-05-11T18:24:47.121Z,16.44
2023-05-11T18:30:08.608Z,16.34
2023-05-11T18:35:33.891Z,16.49
2023-05-11T18:40:56.398Z,16.69
2023-05-11T18:46:17.565Z,16.58
2023-05-11T18:51:38.957Z,16.59
2023-05-11T18:56:59.675Z,16.52
2023-05-11T19:02:23.797Z,16.53
2023-05-11T19:07:46.472Z,16.40
2023-05-11T19:13:07.932Z,16.27
2023-05-11T19:18:32.404Z,16.15
2023-05-11T19:23:53.722Z,15.98
2023-05-11T19:29:24.554Z,15.90
2023-05-11T19:35:05.054Z,15.79
2023-05-11T19:40:45.203Z,15.72
2023-05-11T19:46:16.259Z,15.78
2023-05-11T19:51:36.901Z,15.63
2023-05-11T19:56:59.774Z,15.43
2023-05-11T20:02:20.591Z,15.33
2023-05-11T20:07:41.761Z,15.18
2023-05-11T20:13:06.370Z,15.16
2023-05-11T20:18:27.361Z,15.01
2023-05-11T20:23:48.257Z,14.97
2023-05-11T20:29:10.418Z,15.03
2023-05-11T20:34:31.510Z,15.07
2023-05-11T20:39:52.378Z,14.91
2023-05-11T20:45:13.269Z,14.82
2023-05-11T20:50:34.417Z,14.80
2023-05-11T20:55:55.026Z,14.80
2023-05-11T21:01:16.113Z,14.85
2023-05-11T21:06:37.052Z,14.98
2023-05-11T21:11:59.105Z,14.91
2023-05-11T21:17:20.341Z,14.81
2023-05-11T21:22:41.410Z,14.74
2023-05-11T21:28:02.335Z,14.78
2023-05-11T21:33:23.175Z,14.73
2023-05-11T21:38:44.348Z,14.66
2023-05-11T21:44:05.681Z,14.50
2023-05-11T21:49:26.516Z,14.33
2023-05-11T21:54:47.303Z,14.23
2023-05-11T22:00:09.795Z,14.27
2023-05-11T22:05:30.995Z,14.10
2023-05-11T22:10:52.146Z,14.16
2023-05-11T22:16:13.264Z,14.16
2023-05-11T22:21:34.013Z,14.02
2023-05-11T22:26:55.011Z,14.06
2023-05-11T22:32:16.398Z,14.02
2023-05-11T22:37:37.171Z,13.97
2023-05-11T22:42:58.142Z,14.09
2023-05-11T22:48:19.186Z,14.15
2023-05-11T22:53:40.020Z,14.20
2023-05-11T22:59:01.010Z,14.16
2023-05-11T23:04:22.226Z,14.20
2023-05-11T23:09:43.191Z,14.15
2023-05-11T23:15:05.094Z,14.15
2023-05-11T23:20:26.227Z,14.14
2023-05-11T23:25:47.032Z,14.12
2023-05-11T23:31:07.789Z,14.10
2023-05-11T23:36:28.539Z,14.12
2023-05-11T23:41:49.454Z,14.10
2023-05-11T23:47:10.278Z,14.12
2023-05-11T23:52:31.284Z,14.14
2023-05-11T23:57:52.499Z,14.05
